CES7788 ZUCK-VMMC
Flight info
| Callsign | CES7788 |
|---|---|
| Flight time | N/A |
| Altitude | 33100 |
| Route | UGUGU W182 LAGEX G586 QP B330 POU R473 ZUH |
| Aircraft | B738/M-SDE2E3FGHIRWXY/LB1 |
Departure
| Time | 2026-04-27 12:28 |
|---|---|
| Airport | Chongqing Jiangbei International Airport (ZUCK) |
Arrival
| Time | N/A |
|---|---|
| Airport | Macau International Airport (VMMC) |
| Time | Latitude | Longitude | Altitude | Speed | Heading |
|---|---|---|---|---|---|
| 2026-04-27 11:33 | 29.71192 | 106.64796 | 1370 ft | 0 kts | 131° |
| 2026-04-27 12:12 | 29.71196 | 106.64791 | 1370 ft | 2 kts | 131° |
| 2026-04-27 12:12 | 29.71205 | 106.64778 | 1370 ft | 2 kts | 131° |
| 2026-04-27 12:12 | 29.71215 | 106.64765 | 1370 ft | 2 kts | 131° |
| 2026-04-27 12:12 | 29.71225 | 106.64752 | 1370 ft | 2 kts | 130° |
| 2026-04-27 12:13 | 29.71234 | 106.64739 | 1370 ft | 2 kts | 131° |
| 2026-04-27 12:13 | 29.71237 | 106.64736 | 1370 ft | 0 kts | 131° |
| 2026-04-27 12:20 | 29.71220 | 106.64732 | 1370 ft | 8 kts | 211° |
| 2026-04-27 12:20 | 29.71187 | 106.64671 | 1370 ft | 0 kts | 259° |
| 2026-04-27 12:20 | 29.71183 | 106.64634 | 1370 ft | 11 kts | 248° |
| 2026-04-27 12:21 | 29.71092 | 106.64574 | 1369 ft | 9 kts | 198° |
| 2026-04-27 12:21 | 29.71044 | 106.64558 | 1369 ft | 7 kts | 197° |
| 2026-04-27 12:21 | 29.70973 | 106.64529 | 1369 ft | 14 kts | 198° |
| 2026-04-27 12:21 | 29.70857 | 106.64490 | 1369 ft | 20 kts | 196° |
| 2026-04-27 12:22 | 29.70703 | 106.64436 | 1369 ft | 17 kts | 197° |
| 2026-04-27 12:22 | 29.70632 | 106.64412 | 1369 ft | 12 kts | 196° |
| 2026-04-27 12:22 | 29.70524 | 106.64376 | 1369 ft | 19 kts | 197° |
| 2026-04-27 12:22 | 29.70449 | 106.64349 | 1369 ft | 8 kts | 206° |
| 2026-04-27 12:23 | 29.70431 | 106.64261 | 1369 ft | 11 kts | 283° |
| 2026-04-27 12:23 | 29.70441 | 106.64217 | 1369 ft | 11 kts | 288° |
| 2026-04-27 12:23 | 29.70476 | 106.64083 | 1369 ft | 23 kts | 282° |
| 2026-04-27 12:23 | 29.70485 | 106.63901 | 1369 ft | 17 kts | 271° |
| 2026-04-27 12:24 | 29.70511 | 106.63741 | 1369 ft | 28 kts | 287° |
| 2026-04-27 12:24 | 29.70569 | 106.63522 | 1369 ft | 15 kts | 297° |
| 2026-04-27 12:24 | 29.70584 | 106.63505 | 1369 ft | 0 kts | 325° |
| 2026-04-27 12:24 | 29.70598 | 106.63497 | 1369 ft | 8 kts | 345° |
| 2026-04-27 12:25 | 29.70630 | 106.63498 | 1369 ft | 10 kts | 11° |
| 2026-04-27 12:25 | 29.70722 | 106.63528 | 1369 ft | 10 kts | 31° |
| 2026-04-27 12:25 | 29.70737 | 106.63618 | 1369 ft | 14 kts | 105° |
| 2026-04-27 12:25 | 29.70720 | 106.63724 | 1369 ft | 10 kts | 66° |
| 2026-04-27 12:26 | 29.70796 | 106.63769 | 1369 ft | 15 kts | 16° |
| 2026-04-27 12:26 | 29.70957 | 106.63823 | 1369 ft | 46 kts | 17° |
| 2026-04-27 12:26 | 29.71094 | 106.63876 | 1369 ft | 76 kts | 18° |
| 2026-04-27 12:28 | 29.71823 | 106.64124 | 1370 ft | 152 kts | 16° |
| 2026-04-27 12:28 | 29.72351 | 106.64303 | 1383 ft | 182 kts | 17° |
| 2026-04-27 12:28 | 29.73572 | 106.64699 | 2219 ft | 185 kts | 14° |
| 2026-04-27 12:29 | 29.74809 | 106.65056 | 2985 ft | 187 kts | 19° |
| 2026-04-27 12:29 | 29.76032 | 106.65627 | 3632 ft | 196 kts | 24° |
| 2026-04-27 12:29 | 29.76881 | 106.66019 | 4080 ft | 202 kts | 21° |